createdAt,value
2023-01-23T00:00:58.357Z,101098.30
2023-01-23T00:03:26.013Z,101092.92
2023-01-23T00:06:04.295Z,101090.80
2023-01-23T00:08:31.698Z,101087.66
2023-01-23T00:10:59.104Z,101083.73
2023-01-23T00:13:26.574Z,101083.02
2023-01-23T00:15:54.352Z,101080.95
2023-01-23T00:18:21.921Z,101075.61
2023-01-23T00:20:49.268Z,101073.05
2023-01-23T00:23:16.608Z,101071.17
2023-01-23T00:25:44.095Z,101069.08
2023-01-23T00:28:11.529Z,101064.65
2023-01-23T00:30:38.939Z,101061.27
2023-01-23T00:33:06.368Z,101054.00
2023-01-23T00:35:37.500Z,101052.51
2023-01-23T00:38:04.865Z,101047.15
2023-01-23T00:40:32.213Z,101036.79
2023-01-23T00:42:59.921Z,101036.52
2023-01-23T00:45:27.515Z,101032.40
2023-01-23T00:47:54.915Z,101032.80
2023-01-23T00:50:22.355Z,101028.08
2023-01-23T00:52:49.762Z,101022.77
2023-01-23T00:55:17.813Z,101019.60
2023-01-23T00:57:45.109Z,101016.38
2023-01-23T01:00:12.786Z,101005.30
2023-01-23T01:02:40.146Z,101002.09
2023-01-23T01:05:07.897Z,100998.48
2023-01-23T01:07:35.282Z,100996.98
2023-01-23T01:10:02.743Z,100992.79
2023-01-23T01:12:30.269Z,100991.30
2023-01-23T01:14:57.937Z,100990.33
2023-01-23T01:17:25.479Z,100989.42
2023-01-23T01:19:53.067Z,100988.75
2023-01-23T01:22:20.523Z,100981.85
2023-01-23T01:24:48.303Z,100982.05
2023-01-23T01:27:15.648Z,100984.88
2023-01-23T01:29:42.900Z,100985.17
2023-01-23T01:32:10.244Z,100982.54
2023-01-23T01:34:37.549Z,100985.42
2023-01-23T01:37:04.988Z,100990.66
2023-01-23T01:39:32.370Z,100990.88
2023-01-23T01:41:59.594Z,100991.39
2023-01-23T01:44:28.153Z,100998.71
2023-01-23T01:46:55.791Z,101002.33
2023-01-23T01:49:31.124Z,101010.67
2023-01-23T01:52:04.980Z,101013.55
2023-01-23T01:54:43.999Z,101022.98
2023-01-23T01:57:16.457Z,101032.19
2023-01-23T01:59:46.709Z,101041.46
2023-01-23T02:02:17.268Z,101055.14
2023-01-23T02:04:48.674Z,101067.31
2023-01-23T02:07:26.481Z,101081.71
2023-01-23T02:09:54.324Z,101094.77
2023-01-23T02:12:21.652Z,101110.62
2023-01-23T02:14:49.140Z,101131.05
2023-01-23T02:17:16.552Z,101149.63
2023-01-23T02:20:03.272Z,101169.16
2023-01-23T02:22:34.782Z,101188.39
2023-01-23T02:25:29.418Z,101205.84
2023-01-23T02:27:57.824Z,101225.10
2023-01-23T02:30:25.335Z,101239.77
2023-01-23T02:32:53.129Z,101260.50
2023-01-23T02:35:24.599Z,101283.94
2023-01-23T02:37:52.839Z,101300.33
2023-01-23T02:40:22.482Z,101314.87
2023-01-23T02:42:50.729Z,101332.55
2023-01-23T02:45:18.648Z,101353.70
2023-01-23T02:47:46.435Z,101371.61
2023-01-23T02:50:13.961Z,101385.70
2023-01-23T02:52:41.525Z,101407.14
2023-01-23T02:55:09.183Z,101427.94
2023-01-23T02:57:36.671Z,101446.69
2023-01-23T03:00:16.999Z,101460.48
2023-01-23T03:02:44.694Z,101472.95
2023-01-23T03:05:12.039Z,101487.23
2023-01-23T03:07:39.604Z,101507.05
2023-01-23T03:10:10.424Z,101520.33
2023-01-23T03:12:43.577Z,101530.13
2023-01-23T03:15:11.645Z,101547.88
2023-01-23T03:17:39.059Z,101554.80
2023-01-23T03:20:07.624Z,101570.18
2023-01-23T03:22:35.084Z,101582.77
2023-01-23T03:25:02.767Z,101595.23
2023-01-23T03:27:30.623Z,101605.59
2023-01-23T03:30:13.497Z,101610.73
2023-01-23T03:32:41.177Z,101623.69
2023-01-23T03:35:10.521Z,101637.55
2023-01-23T03:37:37.991Z,101646.92
2023-01-23T03:40:24.818Z,101658.87
2023-01-23T03:42:55.084Z,101668.77
2023-01-23T03:45:26.403Z,101680.15
2023-01-23T03:47:53.873Z,101688.48
2023-01-23T03:50:21.761Z,101699.96
2023-01-23T03:52:49.608Z,101709.35
2023-01-23T03:55:17.114Z,101718.20
2023-01-23T03:57:45.131Z,101717.14
2023-01-23T04:00:25.442Z,101726.38
2023-01-23T04:02:58.265Z,101733.48
2023-01-23T04:05:25.622Z,101736.89
2023-01-23T04:07:53.149Z,101745.44
2023-01-23T04:10:20.898Z,101754.45
2023-01-23T04:12:52.868Z,101763.55
2023-01-23T04:15:20.324Z,101771.55
2023-01-23T04:17:47.678Z,101776.49
2023-01-23T04:20:15.307Z,101786.04
2023-01-23T04:22:43.870Z,101788.68
2023-01-23T04:25:11.568Z,101793.10
2023-01-23T04:27:39.039Z,101801.69
2023-01-23T04:30:07.755Z,101803.11
2023-01-23T04:32:35.529Z,101814.48
2023-01-23T04:35:03.188Z,101814.66
2023-01-23T04:37:30.692Z,101818.94
2023-01-23T04:39:58.353Z,101827.54
2023-01-23T04:42:26.561Z,101828.98
2023-01-23T04:45:08.559Z,101835.91
2023-01-23T04:47:44.671Z,101841.73
2023-01-23T04:50:12.309Z,101844.05
2023-01-23T04:52:41.528Z,101850.30
2023-01-23T04:55:09.420Z,101856.66
2023-01-23T04:57:36.937Z,101860.70
2023-01-23T05:00:14.747Z,101865.98
2023-01-23T05:02:42.389Z,101870.87
2023-01-23T05:05:09.996Z,101874.13
2023-01-23T05:07:37.988Z,101879.27
2023-01-23T05:10:10.267Z,101882.66
2023-01-23T05:12:37.756Z,101897.55
2023-01-23T05:15:05.658Z,101897.54
2023-01-23T08:31:43.187Z,101981.07
2023-01-23T08:34:10.845Z,101976.85
2023-01-23T08:36:38.274Z,101975.13
2023-01-23T08:39:05.681Z,101968.47
2023-01-23T08:41:33.060Z,101963.98
2023-01-23T08:44:01.993Z,101962.17
2023-01-23T08:46:29.516Z,101957.48
2023-01-23T08:48:57.337Z,101948.88
2023-01-23T08:51:25.781Z,101947.30
2023-01-23T08:53:53.837Z,101941.54
2023-01-23T08:56:22.507Z,101940.48
2023-01-23T08:58:50.592Z,101935.98
2023-01-23T09:01:27.362Z,101929.11
2023-01-23T09:03:55.228Z,101921.45
2023-01-23T09:06:23.295Z,101920.27
2023-01-23T09:08:50.813Z,101917.29
2023-01-23T09:11:18.407Z,101915.80
2023-01-23T09:13:47.058Z,101913.16
2023-01-23T09:16:14.581Z,101905.99
2023-01-23T09:18:42.029Z,101900.78
2023-01-23T09:21:11.565Z,101894.39
2023-01-23T09:23:39.011Z,101890.95
2023-01-23T09:26:11.250Z,101886.16
2023-01-23T09:28:40.228Z,101877.59
2023-01-23T09:31:08.490Z,101871.89
2023-01-23T09:33:36.143Z,101866.45
2023-01-23T09:36:04.440Z,101859.61
2023-01-23T09:38:33.705Z,101857.84
2023-01-23T09:41:07.271Z,101851.94
2023-01-23T09:43:52.130Z,101847.52
2023-01-23T09:46:44.747Z,101840.73
2023-01-23T09:49:18.445Z,101836.48
2023-01-23T09:51:58.227Z,101827.67
2023-01-23T09:54:46.707Z,101822.36
2023-01-23T09:57:25.991Z,101815.73
2023-01-23T10:00:11.522Z,101815.48
2023-01-23T10:02:38.955Z,101807.80
2023-01-23T10:05:13.947Z,101796.40
2023-01-23T10:07:46.180Z,101784.16
2023-01-23T10:10:55.572Z,101775.90
2023-01-23T10:13:49.052Z,101765.73
2023-01-23T10:16:50.451Z,101756.56
2023-01-23T10:19:18.489Z,101740.56
2023-01-23T10:21:52.672Z,101732.60
2023-01-23T10:24:45.678Z,101720.99
2023-01-23T10:27:19.314Z,101706.31
2023-01-23T10:30:00.573Z,101701.33
2023-01-23T10:32:30.276Z,101690.34
2023-01-23T10:35:03.441Z,101684.38
2023-01-23T10:37:31.612Z,101676.69
2023-01-23T10:40:11.843Z,101674.12
2023-01-23T10:42:39.340Z,101660.38
2023-01-23T10:45:07.582Z,101654.64
2023-01-23T10:47:37.056Z,101640.52
2023-01-23T10:50:06.509Z,101634.19
2023-01-23T10:52:37.879Z,101620.20
2023-01-23T10:55:11.907Z,101614.90
2023-01-23T10:57:50.342Z,101605.91
2023-01-23T11:00:28.241Z,101594.42
2023-01-23T11:02:55.867Z,101577.92
2023-01-23T11:05:54.717Z,101559.58
2023-01-23T11:08:27.620Z,101550.45
2023-01-23T11:10:57.217Z,101548.46
2023-01-23T11:13:31.331Z,101541.77
2023-01-23T11:15:59.134Z,101538.45
2023-01-23T11:18:34.723Z,101538.89
2023-01-23T11:21:02.262Z,101543.39
2023-01-23T11:23:29.792Z,101545.27
2023-01-23T11:25:57.291Z,101546.58
2023-01-23T11:28:34.271Z,101551.51
2023-01-23T11:31:15.876Z,101557.39
2023-01-23T11:33:55.307Z,101564.84
2023-01-23T11:36:52.559Z,101565.67
2023-01-23T11:39:44.223Z,101574.15
2023-01-23T11:42:11.857Z,101581.95
2023-01-23T11:44:45.963Z,101585.55
2023-01-23T11:47:30.879Z,101599.29
2023-01-23T11:50:07.747Z,101606.20
2023-01-23T11:52:36.694Z,101615.91
2023-01-23T11:55:13.174Z,101628.44
2023-01-23T11:57:46.767Z,101639.98
2023-01-23T12:00:34.355Z,101647.44
2023-01-23T12:03:25.907Z,101661.53
2023-01-23T12:09:17.745Z,101682.21
2023-01-23T12:12:15.916Z,101693.71
2023-01-23T12:15:18.984Z,101701.23
2023-01-23T12:18:08.657Z,101713.38
2023-01-23T12:20:42.304Z,101716.89
2023-01-23T12:23:16.931Z,101719.30
2023-01-23T12:26:14.680Z,101725.40
2023-01-23T12:29:12.474Z,101741.94
2023-01-23T12:31:52.773Z,101751.84
2023-01-23T12:34:48.476Z,101759.04
2023-01-23T12:37:35.069Z,101762.60
2023-01-23T12:40:23.936Z,101767.88
2023-01-23T12:42:51.655Z,101766.51
2023-01-23T12:45:24.374Z,101768.22
2023-01-23T12:48:13.090Z,101773.73
2023-01-23T12:50:56.491Z,101777.42
2023-01-23T12:53:24.267Z,101775.03
2023-01-23T12:56:15.242Z,101774.14
2023-01-23T12:58:51.781Z,101774.73
2023-01-23T13:01:51.152Z,101768.43
2023-01-23T13:04:27.819Z,101777.48
2023-01-23T13:07:00.795Z,101777.90
2023-01-23T13:10:08.684Z,101779.97
2023-01-23T13:12:36.173Z,101786.38
2023-01-23T13:15:38.739Z,101783.79
2023-01-23T17:19:41.907Z,101859.59
2023-01-23T17:22:22.112Z,101882.22
2023-01-23T17:24:51.517Z,101880.83
2023-01-23T17:27:21.689Z,101875.46
2023-01-23T17:29:51.144Z,101873.79
2023-01-23T17:32:29.722Z,101867.75
2023-01-23T17:35:01.724Z,101862.67
2023-01-23T17:37:32.360Z,101857.08
2023-01-23T17:40:02.131Z,101852.86
2023-01-23T17:42:31.643Z,101851.30
2023-01-23T17:45:00.831Z,101846.10
2023-01-23T17:51:54.943Z,101829.27
2023-01-23T17:54:24.189Z,101820.29
2023-01-23T17:56:54.929Z,101814.98
2023-01-23T17:59:24.259Z,101798.43
2023-01-23T18:01:53.574Z,101790.66
2023-01-23T18:04:26.239Z,101783.11
2023-01-23T18:06:55.270Z,101773.77
2023-01-23T18:09:26.708Z,101756.55
2023-01-23T18:11:56.076Z,101746.80
2023-01-23T18:14:47.534Z,101741.42
2023-01-23T18:17:33.816Z,101725.52
2023-01-23T18:20:03.285Z,101715.75
2023-01-23T18:22:33.397Z,101694.48
2023-01-23T18:25:03.512Z,101665.53
2023-01-23T18:27:33.225Z,101641.15
2023-01-23T18:30:26.982Z,101614.66
2023-01-23T18:33:02.212Z,101589.27
2023-01-23T18:36:03.255Z,101563.48
2023-01-23T18:38:59.940Z,101528.99
2023-01-23T18:41:29.469Z,101503.37
2023-01-23T18:44:08.126Z,101478.39
2023-01-23T18:46:38.212Z,101445.58
2023-01-23T18:49:07.492Z,101413.87
2023-01-23T18:51:47.484Z,101375.97
2023-01-23T18:54:28.822Z,101339.39
2023-01-23T18:57:07.924Z,101305.06
2023-01-23T18:59:46.205Z,101265.54
2023-01-23T19:02:31.684Z,101230.80
2023-01-23T19:05:16.365Z,101200.65
2023-01-23T19:07:45.993Z,101169.92
2023-01-23T19:10:23.276Z,101149.42
2023-01-23T19:13:14.320Z,101138.77
2023-01-23T19:15:49.271Z,101145.30
2023-01-23T19:18:59.718Z,101153.83
2023-01-23T19:21:38.642Z,101186.88
2023-01-23T19:24:10.376Z,101220.76
2023-01-23T19:26:41.021Z,101248.48
2023-01-23T19:29:26.154Z,101279.04
2023-01-23T19:32:09.988Z,101320.75
2023-01-23T19:34:39.168Z,101351.66
2023-01-23T19:37:08.535Z,101385.99
2023-01-23T19:39:38.397Z,101407.16
2023-01-23T19:42:13.107Z,101427.13
2023-01-23T19:44:42.260Z,101461.40
2023-01-23T19:47:11.495Z,101490.52
2023-01-23T19:49:41.156Z,101512.54
2023-01-23T19:52:13.877Z,101537.38
2023-01-23T19:54:42.956Z,101569.19
2023-01-23T19:57:13.777Z,101584.31
2023-01-23T19:59:42.844Z,101610.38
2023-01-23T20:02:19.826Z,101639.37
2023-01-23T20:04:49.633Z,101659.27
2023-01-23T20:07:18.783Z,101680.68
2023-01-23T20:09:47.931Z,101697.34
2023-01-23T20:12:18.191Z,101712.59
2023-01-23T20:14:47.255Z,101727.45
2023-01-23T20:17:16.206Z,101737.35
2023-01-23T20:19:45.287Z,101755.23
2023-01-23T20:22:15.318Z,101764.97
2023-01-23T20:24:46.592Z,101778.41
2023-01-23T20:27:15.956Z,101793.20
2023-01-23T20:29:45.421Z,101802.98
2023-01-23T20:32:15.397Z,101813.58
2023-01-23T20:34:44.407Z,101826.33
2023-01-23T20:37:13.682Z,101830.16
2023-01-23T20:39:44.994Z,101844.02
2023-01-23T20:42:15.335Z,101853.16
2023-01-23T20:44:46.840Z,101863.27
2023-01-23T20:47:17.702Z,101868.79
2023-01-23T20:49:47.588Z,101879.73
2023-01-23T20:52:36.029Z,101887.85
2023-01-23T20:55:05.531Z,101903.70
2023-01-23T20:57:54.167Z,101906.54
2023-01-23T21:00:23.389Z,101917.58
2023-01-23T21:02:53.370Z,101921.19
2023-01-23T21:05:23.230Z,101932.70
2023-01-23T21:07:53.178Z,101934.05
2023-01-23T21:10:22.537Z,101937.70
2023-01-23T21:12:53.426Z,101942.19
2023-01-23T21:15:23.064Z,101946.56
2023-01-23T21:17:52.781Z,101949.33
2023-01-23T21:20:22.822Z,101952.64
2023-01-23T21:22:56.758Z,101956.55
2023-01-23T21:25:27.265Z,101960.71
2023-01-23T21:27:56.221Z,101963.59
2023-01-23T21:30:24.899Z,101959.73
2023-01-23T21:32:53.801Z,101960.86
2023-01-23T21:35:23.238Z,101964.42
2023-01-23T21:37:52.633Z,101965.80
2023-01-23T21:40:21.926Z,101967.84
2023-01-23T21:42:50.935Z,101967.90
2023-01-23T21:45:26.230Z,101974.20
2023-01-23T21:47:55.397Z,101973.72
2023-01-23T21:50:24.317Z,101978.00
2023-01-23T21:52:53.779Z,101984.34
2023-01-23T21:55:23.548Z,101984.66
2023-01-23T21:57:52.491Z,101986.79
2023-01-23T22:00:53.985Z,101985.84
2023-01-23T22:03:23.268Z,101993.77
2023-01-23T22:05:52.990Z,101987.70
2023-01-23T22:08:22.523Z,101987.63
2023-01-23T22:10:51.865Z,101984.92
2023-01-23T22:13:20.941Z,101985.04
2023-01-23T22:15:49.782Z,101985.07
2023-01-23T22:18:19.893Z,101983.59
2023-01-23T22:20:56.630Z,101986.07
2023-01-23T22:23:25.545Z,101984.02
2023-01-23T22:25:59.368Z,101981.70
2023-01-23T22:28:29.656Z,101983.38
2023-01-23T22:30:58.436Z,101981.23
2023-01-23T22:33:39.509Z,101980.16
2023-01-23T22:36:11.209Z,101981.73
2023-01-23T22:38:40.262Z,101977.73
2023-01-23T22:41:12.539Z,101984.73
2023-01-23T22:43:43.305Z,101990.02
2023-01-23T22:46:16.698Z,101988.69
2023-01-23T22:48:45.484Z,101987.56
2023-01-23T22:51:28.643Z,101989.16
2023-01-23T22:53:58.250Z,101989.70
2023-01-23T22:56:27.485Z,101991.95
2023-01-23T22:58:56.648Z,101992.05
2023-01-23T23:01:27.425Z,101991.15
2023-01-23T23:03:58.074Z,101987.03
2023-01-23T23:06:27.308Z,101985.98
2023-01-23T23:08:58.042Z,101988.73
2023-01-23T23:11:27.822Z,101990.94
2023-01-23T23:13:57.320Z,101991.09
2023-01-23T23:16:28.123Z,101990.50
2023-01-23T23:18:58.886Z,101992.91
2023-01-23T23:21:30.521Z,101992.66
2023-01-23T23:24:00.355Z,101997.05
2023-01-23T23:26:30.253Z,101994.52
2023-01-23T23:28:59.894Z,101996.78
2023-01-23T23:31:29.158Z,101993.16
2023-01-23T23:33:58.250Z,101992.14
2023-01-23T23:36:27.219Z,101988.93
2023-01-23T23:38:56.218Z,101993.10
2023-01-23T23:41:25.234Z,101988.29
2023-01-23T23:43:57.890Z,101988.57
2023-01-23T23:46:26.680Z,101989.89
2023-01-23T23:48:55.452Z,101986.75
2023-01-23T23:51:26.792Z,101985.96
2023-01-23T23:53:55.813Z,101981.46
2023-01-23T23:56:27.655Z,101981.94
2023-01-23T23:58:56.658Z,101979.06
